sensor_id;sensor_type;location;lat;lon;timestamp;P1;durP1;ratioP1;P2;durP2;ratioP2
70725;SDS011;58304;53.104;6.022;2022-08-21T00:01:48;10.23;;;5.35;;
70725;SDS011;58304;53.104;6.022;2022-08-21T00:04:17;10.73;;;5.55;;
70725;SDS011;58304;53.104;6.022;2022-08-21T00:06:43;9.63;;;5.70;;
70725;SDS011;58304;53.104;6.022;2022-08-21T00:09:08;9.43;;;5.65;;
70725;SDS011;58304;53.104;6.022;2022-08-21T00:11:35;9.75;;;5.68;;
70725;SDS011;58304;53.104;6.022;2022-08-21T00:14:02;9.90;;;5.85;;
70725;SDS011;58304;53.104;6.022;2022-08-21T00:16:31;10.18;;;5.50;;
70725;SDS011;58304;53.104;6.022;2022-08-21T00:18:57;8.13;;;4.93;;
70725;SDS011;58304;53.104;6.022;2022-08-21T00:21:23;11.73;;;5.50;;
70725;SDS011;58304;53.104;6.022;2022-08-21T00:23:51;10.18;;;5.82;;
70725;SDS011;58304;53.104;6.022;2022-08-21T00:33:57;9.98;;;5.35;;
70725;SDS011;58304;53.104;6.022;2022-08-21T00:36:23;11.98;;;5.57;;
70725;SDS011;58304;53.104;6.022;2022-08-21T00:38:50;10.45;;;5.72;;
70725;SDS011;58304;53.104;6.022;2022-08-21T00:41:17;12.77;;;5.45;;
70725;SDS011;58304;53.104;6.022;2022-08-21T00:43:43;9.35;;;5.30;;
70725;SDS011;58304;53.104;6.022;2022-08-21T00:46:12;9.55;;;5.18;;
70725;SDS011;58304;53.104;6.022;2022-08-21T00:48:38;12.77;;;5.90;;
70725;SDS011;58304;53.104;6.022;2022-08-21T00:51:08;13.40;;;5.80;;
70725;SDS011;58304;53.104;6.022;2022-08-21T00:53:38;9.68;;;5.57;;
70725;SDS011;58304;53.104;6.022;2022-08-21T00:56:08;10.90;;;6.07;;
70725;SDS011;58304;53.104;6.022;2022-08-21T00:58:37;11.65;;;5.25;;
70725;SDS011;58304;53.104;6.022;2022-08-21T01:01:07;8.90;;;5.30;;
70725;SDS011;58304;53.104;6.022;2022-08-21T01:03:36;10.63;;;5.40;;
70725;SDS011;58304;53.104;6.022;2022-08-21T01:06:02;9.05;;;5.45;;
70725;SDS011;58304;53.104;6.022;2022-08-21T01:08:29;8.60;;;4.72;;
70725;SDS011;58304;53.104;6.022;2022-08-21T01:10:55;11.80;;;5.43;;
70725;SDS011;58304;53.104;6.022;2022-08-21T01:13:24;11.18;;;5.40;;
70725;SDS011;58304;53.104;6.022;2022-08-21T01:15:53;11.65;;;6.20;;
70725;SDS011;58304;53.104;6.022;2022-08-21T01:18:20;12.02;;;6.15;;
70725;SDS011;58304;53.104;6.022;2022-08-21T01:23:33;9.00;;;5.28;;
70725;SDS011;58304;53.104;6.022;2022-08-21T01:26:00;11.35;;;6.10;;
70725;SDS011;58304;53.104;6.022;2022-08-21T01:28:27;12.70;;;6.20;;
70725;SDS011;58304;53.104;6.022;2022-08-21T01:30:55;9.05;;;5.15;;
70725;SDS011;58304;53.104;6.022;2022-08-21T01:33:22;10.68;;;5.43;;
70725;SDS011;58304;53.104;6.022;2022-08-21T01:35:49;8.02;;;5.43;;
70725;SDS011;58304;53.104;6.022;2022-08-21T01:38:15;9.38;;;5.07;;
70725;SDS011;58304;53.104;6.022;2022-08-21T01:40:41;11.45;;;5.72;;
70725;SDS011;58304;53.104;6.022;2022-08-21T01:43:07;9.60;;;5.22;;
70725;SDS011;58304;53.104;6.022;2022-08-21T01:45:32;11.27;;;5.50;;
70725;SDS011;58304;53.104;6.022;2022-08-21T01:47:58;11.38;;;5.43;;
70725;SDS011;58304;53.104;6.022;2022-08-21T01:50:24;14.43;;;5.93;;
70725;SDS011;58304;53.104;6.022;2022-08-21T01:52:50;14.20;;;5.50;;
70725;SDS011;58304;53.104;6.022;2022-08-21T01:55:20;11.55;;;5.82;;
70725;SDS011;58304;53.104;6.022;2022-08-21T01:57:46;9.85;;;5.68;;
70725;SDS011;58304;53.104;6.022;2022-08-21T02:00:13;11.70;;;5.50;;
70725;SDS011;58304;53.104;6.022;2022-08-21T02:02:41;8.85;;;5.35;;
70725;SDS011;58304;53.104;6.022;2022-08-21T02:05:08;10.10;;;5.43;;
70725;SDS011;58304;53.104;6.022;2022-08-21T02:07:40;11.50;;;5.80;;
70725;SDS011;58304;53.104;6.022;2022-08-21T02:10:17;11.70;;;5.57;;
70725;SDS011;58304;53.104;6.022;2022-08-21T02:12:45;9.82;;;5.93;;
70725;SDS011;58304;53.104;6.022;2022-08-21T02:15:11;11.27;;;5.90;;
70725;SDS011;58304;53.104;6.022;2022-08-21T02:17:38;13.20;;;6.03;;
70725;SDS011;58304;53.104;6.022;2022-08-21T02:20:07;9.63;;;5.90;;
70725;SDS011;58304;53.104;6.022;2022-08-21T02:22:33;9.80;;;5.65;;
70725;SDS011;58304;53.104;6.022;2022-08-21T02:24:59;9.25;;;5.57;;
70725;SDS011;58304;53.104;6.022;2022-08-21T02:27:25;12.77;;;5.32;;
70725;SDS011;58304;53.104;6.022;2022-08-21T02:29:50;10.15;;;5.40;;
70725;SDS011;58304;53.104;6.022;2022-08-21T02:32:16;8.00;;;5.45;;
70725;SDS011;58304;53.104;6.022;2022-08-21T02:34:44;9.93;;;5.97;;
70725;SDS011;58304;53.104;6.022;2022-08-21T02:37:11;10.80;;;5.85;;
70725;SDS011;58304;53.104;6.022;2022-08-21T02:39:37;10.40;;;5.38;;
70725;SDS011;58304;53.104;6.022;2022-08-21T02:42:03;11.52;;;5.60;;
70725;SDS011;58304;53.104;6.022;2022-08-21T02:44:29;11.95;;;5.43;;
70725;SDS011;58304;53.104;6.022;2022-08-21T02:46:54;9.38;;;5.30;;
70725;SDS011;58304;53.104;6.022;2022-08-21T02:49:20;9.60;;;5.30;;
70725;SDS011;58304;53.104;6.022;2022-08-21T02:51:46;11.35;;;5.20;;
70725;SDS011;58304;53.104;6.022;2022-08-21T02:54:11;9.48;;;4.95;;
70725;SDS011;58304;53.104;6.022;2022-08-21T02:56:37;10.50;;;5.60;;
70725;SDS011;58304;53.104;6.022;2022-08-21T02:59:02;12.60;;;5.05;;
70725;SDS011;58304;53.104;6.022;2022-08-21T03:01:28;10.13;;;5.07;;
70725;SDS011;58304;53.104;6.022;2022-08-21T03:03:54;10.23;;;5.45;;
70725;SDS011;58304;53.104;6.022;2022-08-21T03:06:21;15.27;;;5.72;;
70725;SDS011;58304;53.104;6.022;2022-08-21T03:08:49;12.43;;;5.65;;
70725;SDS011;58304;53.104;6.022;2022-08-21T03:11:15;11.63;;;5.50;;
70725;SDS011;58304;53.104;6.022;2022-08-21T03:13:45;11.73;;;5.40;;
70725;SDS011;58304;53.104;6.022;2022-08-21T03:16:11;10.73;;;5.35;;
70725;SDS011;58304;53.104;6.022;2022-08-21T03:18:37;9.98;;;4.97;;
70725;SDS011;58304;53.104;6.022;2022-08-21T03:21:05;11.57;;;4.95;;
70725;SDS011;58304;53.104;6.022;2022-08-21T03:23:31;9.07;;;5.07;;
70725;SDS011;58304;53.104;6.022;2022-08-21T03:25:58;11.63;;;5.28;;
70725;SDS011;58304;53.104;6.022;2022-08-21T03:28:27;10.05;;;5.38;;
70725;SDS011;58304;53.104;6.022;2022-08-21T03:30:54;9.65;;;5.25;;
70725;SDS011;58304;53.104;6.022;2022-08-21T03:33:20;9.63;;;4.97;;
70725;SDS011;58304;53.104;6.022;2022-08-21T03:35:48;13.65;;;5.40;;
70725;SDS011;58304;53.104;6.022;2022-08-21T03:38:29;11.80;;;5.07;;
70725;SDS011;58304;53.104;6.022;2022-08-21T03:40:58;12.55;;;5.43;;
70725;SDS011;58304;53.104;6.022;2022-08-21T03:43:25;11.20;;;5.50;;
70725;SDS011;58304;53.104;6.022;2022-08-21T03:45:51;11.45;;;5.30;;
70725;SDS011;58304;53.104;6.022;2022-08-21T03:48:18;12.27;;;5.22;;
70725;SDS011;58304;53.104;6.022;2022-08-21T03:50:44;13.38;;;5.13;;
70725;SDS011;58304;53.104;6.022;2022-08-21T03:53:12;10.88;;;5.03;;
70725;SDS011;58304;53.104;6.022;2022-08-21T03:55:39;12.07;;;5.50;;
70725;SDS011;58304;53.104;6.022;2022-08-21T03:58:05;9.43;;;4.85;;
70725;SDS011;58304;53.104;6.022;2022-08-21T04:00:34;9.95;;;5.13;;
70725;SDS011;58304;53.104;6.022;2022-08-21T04:03:00;11.25;;;5.30;;
70725;SDS011;58304;53.104;6.022;2022-08-21T04:05:26;9.57;;;4.93;;
70725;SDS011;58304;53.104;6.022;2022-08-21T04:07:59;9.90;;;4.68;;
70725;SDS011;58304;53.104;6.022;2022-08-21T04:10:27;11.85;;;4.93;;
70725;SDS011;58304;53.104;6.022;2022-08-21T04:12:54;9.60;;;4.95;;
70725;SDS011;58304;53.104;6.022;2022-08-21T04:15:23;12.18;;;5.53;;
70725;SDS011;58304;53.104;6.022;2022-08-21T04:17:50;11.95;;;5.57;;
70725;SDS011;58304;53.104;6.022;2022-08-21T04:20:16;13.13;;;5.13;;
70725;SDS011;58304;53.104;6.022;2022-08-21T04:22:43;10.80;;;4.78;;
70725;SDS011;58304;53.104;6.022;2022-08-21T04:25:09;10.05;;;5.10;;
70725;SDS011;58304;53.104;6.022;2022-08-21T04:27:36;11.55;;;5.18;;
70725;SDS011;58304;53.104;6.022;2022-08-21T04:30:03;11.23;;;5.32;;
70725;SDS011;58304;53.104;6.022;2022-08-21T04:32:29;10.35;;;5.13;;
70725;SDS011;58304;53.104;6.022;2022-08-21T04:34:59;8.68;;;4.82;;
70725;SDS011;58304;53.104;6.022;2022-08-21T04:37:29;10.20;;;4.78;;
70725;SDS011;58304;53.104;6.022;2022-08-21T04:39:55;9.73;;;5.05;;
70725;SDS011;58304;53.104;6.022;2022-08-21T04:42:25;9.65;;;4.82;;
70725;SDS011;58304;53.104;6.022;2022-08-21T04:44:52;10.93;;;5.22;;
70725;SDS011;58304;53.104;6.022;2022-08-21T04:47:19;15.15;;;5.20;;
70725;SDS011;58304;53.104;6.022;2022-08-21T04:49:44;11.25;;;4.82;;
70725;SDS011;58304;53.104;6.022;2022-08-21T04:52:10;11.65;;;5.18;;
70725;SDS011;58304;53.104;6.022;2022-08-21T04:54:38;9.50;;;4.88;;
70725;SDS011;58304;53.104;6.022;2022-08-21T04:57:06;14.23;;;5.25;;
70725;SDS011;58304;53.104;6.022;2022-08-21T04:59:40;12.40;;;4.78;;
70725;SDS011;58304;53.104;6.022;2022-08-21T05:02:12;12.52;;;4.97;;
70725;SDS011;58304;53.104;6.022;2022-08-21T05:04:43;15.65;;;4.97;;
70725;SDS011;58304;53.104;6.022;2022-08-21T05:07:15;11.93;;;5.00;;
70725;SDS011;58304;53.104;6.022;2022-08-21T05:09:47;7.88;;;4.78;;
70725;SDS011;58304;53.104;6.022;2022-08-21T05:12:13;10.88;;;4.95;;
70725;SDS011;58304;53.104;6.022;2022-08-21T05:14:39;11.82;;;5.45;;
70725;SDS011;58304;53.104;6.022;2022-08-21T05:17:08;10.15;;;5.22;;
70725;SDS011;58304;53.104;6.022;2022-08-21T05:19:34;10.88;;;4.93;;
70725;SDS011;58304;53.104;6.022;2022-08-21T05:22:00;10.98;;;5.03;;
70725;SDS011;58304;53.104;6.022;2022-08-21T05:24:26;12.25;;;4.95;;
70725;SDS011;58304;53.104;6.022;2022-08-21T05:26:52;11.43;;;5.00;;
70725;SDS011;58304;53.104;6.022;2022-08-21T05:29:18;13.52;;;4.93;;
70725;SDS011;58304;53.104;6.022;2022-08-21T05:31:44;11.95;;;5.00;;
70725;SDS011;58304;53.104;6.022;2022-08-21T05:34:12;11.70;;;5.50;;
70725;SDS011;58304;53.104;6.022;2022-08-21T05:36:38;12.18;;;5.00;;
70725;SDS011;58304;53.104;6.022;2022-08-21T05:39:05;10.52;;;4.80;;
70725;SDS011;58304;53.104;6.022;2022-08-21T05:41:31;13.25;;;5.20;;
70725;SDS011;58304;53.104;6.022;2022-08-21T05:43:57;11.68;;;4.85;;
70725;SDS011;58304;53.104;6.022;2022-08-21T05:46:22;12.52;;;4.78;;
70725;SDS011;58304;53.104;6.022;2022-08-21T05:48:51;10.68;;;5.22;;
70725;SDS011;58304;53.104;6.022;2022-08-21T05:51:17;10.40;;;4.60;;
70725;SDS011;58304;53.104;6.022;2022-08-21T05:53:44;10.20;;;4.68;;
70725;SDS011;58304;53.104;6.022;2022-08-21T05:56:10;9.70;;;4.68;;
70725;SDS011;58304;53.104;6.022;2022-08-21T05:58:37;9.10;;;4.30;;
70725;SDS011;58304;53.104;6.022;2022-08-21T06:01:03;11.57;;;5.72;;
70725;SDS011;58304;53.104;6.022;2022-08-21T06:03:31;11.65;;;4.70;;
70725;SDS011;58304;53.104;6.022;2022-08-21T06:06:00;11.98;;;4.07;;
70725;SDS011;58304;53.104;6.022;2022-08-21T06:08:27;9.18;;;4.40;;
70725;SDS011;58304;53.104;6.022;2022-08-21T06:10:53;10.55;;;4.32;;
70725;SDS011;58304;53.104;6.022;2022-08-21T06:13:22;11.82;;;4.30;;
70725;SDS011;58304;53.104;6.022;2022-08-21T06:15:48;9.48;;;3.70;;
70725;SDS011;58304;53.104;6.022;2022-08-21T06:18:15;10.00;;;3.97;;
70725;SDS011;58304;53.104;6.022;2022-08-21T06:20:41;10.65;;;4.28;;
70725;SDS011;58304;53.104;6.022;2022-08-21T06:23:07;9.88;;;4.10;;
70725;SDS011;58304;53.104;6.022;2022-08-21T06:25:32;9.50;;;4.00;;
70725;SDS011;58304;53.104;6.022;2022-08-21T06:28:06;10.93;;;3.67;;
70725;SDS011;58304;53.104;6.022;2022-08-21T06:30:34;9.18;;;3.17;;
70725;SDS011;58304;53.104;6.022;2022-08-21T06:33:01;8.68;;;3.75;;
70725;SDS011;58304;53.104;6.022;2022-08-21T06:35:28;9.23;;;3.30;;
70725;SDS011;58304;53.104;6.022;2022-08-21T06:37:54;11.57;;;3.50;;
70725;SDS011;58304;53.104;6.022;2022-08-21T06:40:22;6.55;;;3.08;;
70725;SDS011;58304;53.104;6.022;2022-08-21T06:42:48;8.15;;;3.33;;
70725;SDS011;58304;53.104;6.022;2022-08-21T06:45:14;11.68;;;3.40;;
70725;SDS011;58304;53.104;6.022;2022-08-21T06:47:40;9.55;;;3.33;;
70725;SDS011;58304;53.104;6.022;2022-08-21T06:50:06;11.43;;;3.60;;
70725;SDS011;58304;53.104;6.022;2022-08-21T06:52:33;9.93;;;3.45;;
70725;SDS011;58304;53.104;6.022;2022-08-21T06:54:59;9.55;;;3.33;;
70725;SDS011;58304;53.104;6.022;2022-08-21T06:57:25;7.22;;;3.10;;
70725;SDS011;58304;53.104;6.022;2022-08-21T06:59:51;7.38;;;3.22;;
70725;SDS011;58304;53.104;6.022;2022-08-21T07:02:16;8.63;;;3.15;;
70725;SDS011;58304;53.104;6.022;2022-08-21T07:04:43;9.90;;;2.85;;
70725;SDS011;58304;53.104;6.022;2022-08-21T07:07:09;9.30;;;2.97;;
70725;SDS011;58304;53.104;6.022;2022-08-21T07:09:34;9.05;;;3.00;;
70725;SDS011;58304;53.104;6.022;2022-08-21T07:12:00;8.57;;;2.70;;
70725;SDS011;58304;53.104;6.022;2022-08-21T07:14:27;7.78;;;2.55;;
70725;SDS011;58304;53.104;6.022;2022-08-21T07:16:53;8.20;;;2.42;;
70725;SDS011;58304;53.104;6.022;2022-08-21T07:19:19;8.98;;;2.63;;
70725;SDS011;58304;53.104;6.022;2022-08-21T07:21:45;5.82;;;2.38;;
70725;SDS011;58304;53.104;6.022;2022-08-21T07:24:11;7.18;;;2.47;;
70725;SDS011;58304;53.104;6.022;2022-08-21T07:26:37;8.50;;;2.40;;
70725;SDS011;58304;53.104;6.022;2022-08-21T07:29:03;10.70;;;2.67;;
70725;SDS011;58304;53.104;6.022;2022-08-21T07:31:29;9.43;;;2.42;;
70725;SDS011;58304;53.104;6.022;2022-08-21T07:33:55;4.78;;;2.30;;
70725;SDS011;58304;53.104;6.022;2022-08-21T07:36:21;5.93;;;2.40;;
70725;SDS011;58304;53.104;6.022;2022-08-21T07:38:47;7.82;;;2.10;;
70725;SDS011;58304;53.104;6.022;2022-08-21T07:41:14;9.50;;;2.60;;
70725;SDS011;58304;53.104;6.022;2022-08-21T07:43:47;7.50;;;2.33;;
70725;SDS011;58304;53.104;6.022;2022-08-21T07:46:13;10.32;;;2.10;;
70725;SDS011;58304;53.104;6.022;2022-08-21T07:48:39;8.07;;;2.40;;
70725;SDS011;58304;53.104;6.022;2022-08-21T07:51:09;8.50;;;2.05;;
70725;SDS011;58304;53.104;6.022;2022-08-21T07:53:37;8.52;;;2.30;;
70725;SDS011;58304;53.104;6.022;2022-08-21T07:56:03;7.85;;;2.40;;
70725;SDS011;58304;53.104;6.022;2022-08-21T07:58:30;11.20;;;2.30;;
70725;SDS011;58304;53.104;6.022;2022-08-21T08:00:56;7.68;;;2.03;;
70725;SDS011;58304;53.104;6.022;2022-08-21T08:03:22;10.18;;;2.22;;
70725;SDS011;58304;53.104;6.022;2022-08-21T08:05:47;8.93;;;2.28;;
70725;SDS011;58304;53.104;6.022;2022-08-21T08:08:13;7.45;;;2.10;;
70725;SDS011;58304;53.104;6.022;2022-08-21T08:10:39;6.63;;;2.10;;
70725;SDS011;58304;53.104;6.022;2022-08-21T08:13:05;7.10;;;2.15;;
70725;SDS011;58304;53.104;6.022;2022-08-21T08:15:30;5.50;;;2.17;;
70725;SDS011;58304;53.104;6.022;2022-08-21T08:17:56;7.63;;;2.40;;
70725;SDS011;58304;53.104;6.022;2022-08-21T08:20:22;7.45;;;2.30;;
70725;SDS011;58304;53.104;6.022;2022-08-21T08:22:50;7.80;;;2.25;;
70725;SDS011;58304;53.104;6.022;2022-08-21T08:25:16;5.80;;;1.83;;
70725;SDS011;58304;53.104;6.022;2022-08-21T08:27:43;7.47;;;1.80;;
70725;SDS011;58304;53.104;6.022;2022-08-21T08:30:12;7.40;;;1.90;;
70725;SDS011;58304;53.104;6.022;2022-08-21T08:32:40;8.18;;;2.28;;
70725;SDS011;58304;53.104;6.022;2022-08-21T08:35:06;6.85;;;2.05;;
70725;SDS011;58304;53.104;6.022;2022-08-21T08:37:36;9.05;;;2.42;;
70725;SDS011;58304;53.104;6.022;2022-08-21T08:40:13;7.80;;;2.50;;
70725;SDS011;58304;53.104;6.022;2022-08-21T08:42:43;8.43;;;2.13;;
70725;SDS011;58304;53.104;6.022;2022-08-21T08:45:13;6.85;;;2.35;;
70725;SDS011;58304;53.104;6.022;2022-08-21T08:47:47;8.50;;;2.30;;
70725;SDS011;58304;53.104;6.022;2022-08-21T08:50:21;9.07;;;2.22;;
70725;SDS011;58304;53.104;6.022;2022-08-21T08:55:42;9.15;;;2.22;;
70725;SDS011;58304;53.104;6.022;2022-08-21T08:58:16;6.97;;;1.98;;
70725;SDS011;58304;53.104;6.022;2022-08-21T09:00:50;8.50;;;2.00;;
70725;SDS011;58304;53.104;6.022;2022-08-21T09:03:18;7.72;;;1.88;;
70725;SDS011;58304;53.104;6.022;2022-08-21T09:05:47;8.35;;;1.90;;
70725;SDS011;58304;53.104;6.022;2022-08-21T09:11:04;9.80;;;2.00;;
70725;SDS011;58304;53.104;6.022;2022-08-21T09:13:41;9.50;;;2.35;;
70725;SDS011;58304;53.104;6.022;2022-08-21T09:16:13;10.07;;;1.90;;
70725;SDS011;58304;53.104;6.022;2022-08-21T09:27:27;8.25;;;1.90;;
70725;SDS011;58304;53.104;6.022;2022-08-21T09:29:55;9.73;;;1.80;;
70725;SDS011;58304;53.104;6.022;2022-08-21T09:32:24;9.88;;;2.22;;
70725;SDS011;58304;53.104;6.022;2022-08-21T09:35:10;6.88;;;2.00;;
70725;SDS011;58304;53.104;6.022;2022-08-21T09:37:53;8.32;;;2.15;;
70725;SDS011;58304;53.104;6.022;2022-08-21T09:45:37;7.40;;;2.13;;
70725;SDS011;58304;53.104;6.022;2022-08-21T09:48:08;6.80;;;1.95;;
70725;SDS011;58304;53.104;6.022;2022-08-21T09:50:39;8.90;;;1.95;;
70725;SDS011;58304;53.104;6.022;2022-08-21T09:53:13;6.15;;;1.90;;
70725;SDS011;58304;53.104;6.022;2022-08-21T09:55:49;9.30;;;2.47;;
70725;SDS011;58304;53.104;6.022;2022-08-21T09:58:43;7.60;;;1.92;;
70725;SDS011;58304;53.104;6.022;2022-08-21T10:01:15;14.50;;;2.47;;
70725;SDS011;58304;53.104;6.022;2022-08-21T10:03:43;8.90;;;2.15;;
70725;SDS011;58304;53.104;6.022;2022-08-21T10:06:20;11.00;;;2.10;;
70725;SDS011;58304;53.104;6.022;2022-08-21T10:09:02;7.35;;;2.00;;
70725;SDS011;58304;53.104;6.022;2022-08-21T10:11:33;8.00;;;2.10;;
70725;SDS011;58304;53.104;6.022;2022-08-21T10:16:44;6.82;;;1.73;;
70725;SDS011;58304;53.104;6.022;2022-08-21T10:19:24;7.90;;;2.28;;
70725;SDS011;58304;53.104;6.022;2022-08-21T10:25:06;7.60;;;2.00;;
70725;SDS011;58304;53.104;6.022;2022-08-21T10:27:51;8.98;;;2.10;;
70725;SDS011;58304;53.104;6.022;2022-08-21T10:36:04;6.05;;;2.00;;
70725;SDS011;58304;53.104;6.022;2022-08-21T10:44:24;7.15;;;1.83;;
70725;SDS011;58304;53.104;6.022;2022-08-21T10:49:57;7.35;;;1.88;;
70725;SDS011;58304;53.104;6.022;2022-08-21T10:55:11;8.60;;;1.85;;
70725;SDS011;58304;53.104;6.022;2022-08-21T10:57:54;8.02;;;1.55;;
70725;SDS011;58304;53.104;6.022;2022-08-21T11:00:47;7.70;;;1.85;;
70725;SDS011;58304;53.104;6.022;2022-08-21T11:03:27;7.57;;;1.80;;
70725;SDS011;58304;53.104;6.022;2022-08-21T11:06:09;7.25;;;1.73;;
70725;SDS011;58304;53.104;6.022;2022-08-21T11:08:42;7.10;;;1.55;;
70725;SDS011;58304;53.104;6.022;2022-08-21T11:11:15;4.22;;;1.25;;
70725;SDS011;58304;53.104;6.022;2022-08-21T11:17:11;5.95;;;1.30;;
70725;SDS011;58304;53.104;6.022;2022-08-21T11:19:52;4.15;;;1.52;;
70725;SDS011;58304;53.104;6.022;2022-08-21T11:22:38;6.28;;;1.40;;
70725;SDS011;58304;53.104;6.022;2022-08-21T11:25:22;4.90;;;1.27;;
70725;SDS011;58304;53.104;6.022;2022-08-21T11:28:02;3.60;;;1.20;;
70725;SDS011;58304;53.104;6.022;2022-08-21T11:30:59;5.15;;;1.20;;
70725;SDS011;58304;53.104;6.022;2022-08-21T11:36:51;5.13;;;1.35;;
70725;SDS011;58304;53.104;6.022;2022-08-21T11:45:03;6.30;;;1.08;;
70725;SDS011;58304;53.104;6.022;2022-08-21T11:50:17;6.68;;;1.40;;
70725;SDS011;58304;53.104;6.022;2022-08-21T11:52:50;5.43;;;1.38;;
70725;SDS011;58304;53.104;6.022;2022-08-21T11:58:19;4.13;;;1.40;;
70725;SDS011;58304;53.104;6.022;2022-08-21T12:00:51;3.72;;;1.30;;
70725;SDS011;58304;53.104;6.022;2022-08-21T12:03:39;4.22;;;1.30;;
70725;SDS011;58304;53.104;6.022;2022-08-21T12:06:08;4.80;;;1.33;;
70725;SDS011;58304;53.104;6.022;2022-08-21T12:08:37;4.55;;;1.55;;
70725;SDS011;58304;53.104;6.022;2022-08-21T12:16:33;7.93;;;1.40;;
70725;SDS011;58304;53.104;6.022;2022-08-21T12:21:34;4.80;;;1.40;;
70725;SDS011;58304;53.104;6.022;2022-08-21T12:26:51;6.60;;;1.50;;
70725;SDS011;58304;53.104;6.022;2022-08-21T12:29:23;5.72;;;1.40;;
70725;SDS011;58304;53.104;6.022;2022-08-21T12:37:24;6.90;;;1.58;;
70725;SDS011;58304;53.104;6.022;2022-08-21T12:40:00;7.35;;;1.65;;
70725;SDS011;58304;53.104;6.022;2022-08-21T12:42:34;8.25;;;1.60;;
70725;SDS011;58304;53.104;6.022;2022-08-21T12:50:36;5.63;;;1.67;;
70725;SDS011;58304;53.104;6.022;2022-08-21T12:53:26;6.05;;;1.50;;
70725;SDS011;58304;53.104;6.022;2022-08-21T12:56:07;7.20;;;1.80;;
70725;SDS011;58304;53.104;6.022;2022-08-21T12:58:34;6.80;;;1.65;;
70725;SDS011;58304;53.104;6.022;2022-08-21T13:01:07;6.50;;;1.70;;
70725;SDS011;58304;53.104;6.022;2022-08-21T13:03:45;8.38;;;1.77;;
70725;SDS011;58304;53.104;6.022;2022-08-21T13:06:16;7.97;;;1.50;;
70725;SDS011;58304;53.104;6.022;2022-08-21T13:08:43;6.43;;;1.70;;
70725;SDS011;58304;53.104;6.022;2022-08-21T13:11:11;6.80;;;1.95;;
70725;SDS011;58304;53.104;6.022;2022-08-21T13:13:40;8.48;;;1.58;;
70725;SDS011;58304;53.104;6.022;2022-08-21T13:16:07;7.00;;;1.40;;
70725;SDS011;58304;53.104;6.022;2022-08-21T13:18:36;4.35;;;1.20;;
70725;SDS011;58304;53.104;6.022;2022-08-21T13:21:16;4.32;;;1.40;;
70725;SDS011;58304;53.104;6.022;2022-08-21T13:23:45;6.80;;;1.67;;
70725;SDS011;58304;53.104;6.022;2022-08-21T13:26:13;5.00;;;1.50;;
70725;SDS011;58304;53.104;6.022;2022-08-21T13:28:45;4.60;;;1.20;;
70725;SDS011;58304;53.104;6.022;2022-08-21T13:31:12;5.40;;;1.25;;
70725;SDS011;58304;53.104;6.022;2022-08-21T13:33:43;5.88;;;1.58;;
70725;SDS011;58304;53.104;6.022;2022-08-21T13:38:35;4.60;;;1.17;;
70725;SDS011;58304;53.104;6.022;2022-08-21T13:44:13;5.10;;;1.40;;
70725;SDS011;58304;53.104;6.022;2022-08-21T13:49:10;5.22;;;1.40;;
70725;SDS011;58304;53.104;6.022;2022-08-21T13:51:41;4.13;;;1.30;;
70725;SDS011;58304;53.104;6.022;2022-08-21T13:54:27;7.30;;;1.70;;
70725;SDS011;58304;53.104;6.022;2022-08-21T13:56:59;5.80;;;1.60;;
70725;SDS011;58304;53.104;6.022;2022-08-21T13:59:35;4.68;;;1.50;;
70725;SDS011;58304;53.104;6.022;2022-08-21T14:02:09;7.18;;;1.70;;
70725;SDS011;58304;53.104;6.022;2022-08-21T14:04:55;4.35;;;1.38;;
70725;SDS011;58304;53.104;6.022;2022-08-21T14:07:35;5.13;;;1.25;;
70725;SDS011;58304;53.104;6.022;2022-08-21T14:10:11;5.20;;;1.38;;
70725;SDS011;58304;53.104;6.022;2022-08-21T14:13:02;5.72;;;1.30;;
70725;SDS011;58304;53.104;6.022;2022-08-21T14:15:28;8.45;;;1.80;;
70725;SDS011;58304;53.104;6.022;2022-08-21T14:20:36;5.80;;;1.25;;
70725;SDS011;58304;53.104;6.022;2022-08-21T14:23:05;4.88;;;1.25;;
70725;SDS011;58304;53.104;6.022;2022-08-21T14:25:37;4.85;;;1.60;;
70725;SDS011;58304;53.104;6.022;2022-08-21T14:30:38;5.70;;;1.50;;
70725;SDS011;58304;53.104;6.022;2022-08-21T14:33:13;5.80;;;1.40;;
70725;SDS011;58304;53.104;6.022;2022-08-21T14:35:45;7.03;;;1.77;;
70725;SDS011;58304;53.104;6.022;2022-08-21T14:38:15;5.10;;;1.25;;
70725;SDS011;58304;53.104;6.022;2022-08-21T14:40:43;6.30;;;1.90;;
70725;SDS011;58304;53.104;6.022;2022-08-21T14:43:13;6.18;;;1.63;;
70725;SDS011;58304;53.104;6.022;2022-08-21T14:45:39;9.80;;;1.58;;
70725;SDS011;58304;53.104;6.022;2022-08-21T14:48:05;5.15;;;1.40;;
70725;SDS011;58304;53.104;6.022;2022-08-21T14:50:32;5.30;;;1.25;;
70725;SDS011;58304;53.104;6.022;2022-08-21T14:52:58;4.65;;;1.33;;
70725;SDS011;58304;53.104;6.022;2022-08-21T14:55:26;4.60;;;1.30;;
70725;SDS011;58304;53.104;6.022;2022-08-21T14:57:52;5.55;;;1.23;;
70725;SDS011;58304;53.104;6.022;2022-08-21T15:00:21;4.43;;;1.35;;
70725;SDS011;58304;53.104;6.022;2022-08-21T15:02:49;6.85;;;1.75;;
70725;SDS011;58304;53.104;6.022;2022-08-21T15:05:16;4.47;;;1.15;;
70725;SDS011;58304;53.104;6.022;2022-08-21T15:07:42;4.40;;;1.45;;
70725;SDS011;58304;53.104;6.022;2022-08-21T15:10:11;5.68;;;1.60;;
70725;SDS011;58304;53.104;6.022;2022-08-21T15:12:37;8.18;;;1.60;;
70725;SDS011;58304;53.104;6.022;2022-08-21T15:15:04;5.97;;;1.70;;
70725;SDS011;58304;53.104;6.022;2022-08-21T15:17:31;6.72;;;1.75;;
70725;SDS011;58304;53.104;6.022;2022-08-21T15:19:56;7.38;;;1.70;;
70725;SDS011;58304;53.104;6.022;2022-08-21T15:22:22;5.05;;;1.45;;
70725;SDS011;58304;53.104;6.022;2022-08-21T15:24:48;7.65;;;1.65;;
70725;SDS011;58304;53.104;6.022;2022-08-21T15:27:13;7.53;;;1.88;;
70725;SDS011;58304;53.104;6.022;2022-08-21T15:29:43;8.90;;;1.70;;
70725;SDS011;58304;53.104;6.022;2022-08-21T15:32:19;4.60;;;1.30;;
70725;SDS011;58304;53.104;6.022;2022-08-21T15:35:05;7.78;;;1.60;;
70725;SDS011;58304;53.104;6.022;2022-08-21T15:37:31;6.82;;;1.60;;
70725;SDS011;58304;53.104;6.022;2022-08-21T15:39:57;5.60;;;1.50;;
70725;SDS011;58304;53.104;6.022;2022-08-21T15:42:23;7.00;;;1.67;;
70725;SDS011;58304;53.104;6.022;2022-08-21T15:44:57;6.80;;;1.90;;
70725;SDS011;58304;53.104;6.022;2022-08-21T15:47:30;5.38;;;1.27;;
70725;SDS011;58304;53.104;6.022;2022-08-21T15:50:01;8.88;;;1.70;;
70725;SDS011;58304;53.104;6.022;2022-08-21T15:52:28;4.65;;;1.25;;
70725;SDS011;58304;53.104;6.022;2022-08-21T15:54:53;6.00;;;1.40;;
70725;SDS011;58304;53.104;6.022;2022-08-21T15:57:20;6.78;;;1.60;;
70725;SDS011;58304;53.104;6.022;2022-08-21T15:59:49;8.20;;;1.55;;
70725;SDS011;58304;53.104;6.022;2022-08-21T16:02:19;6.25;;;1.50;;
70725;SDS011;58304;53.104;6.022;2022-08-21T16:04:48;4.55;;;1.48;;
70725;SDS011;58304;53.104;6.022;2022-08-21T16:07:13;8.70;;;1.90;;
70725;SDS011;58304;53.104;6.022;2022-08-21T16:09:39;5.55;;;1.52;;
70725;SDS011;58304;53.104;6.022;2022-08-21T16:12:05;7.80;;;1.88;;
70725;SDS011;58304;53.104;6.022;2022-08-21T16:14:33;8.02;;;1.50;;
70725;SDS011;58304;53.104;6.022;2022-08-21T16:17:01;9.57;;;1.50;;
70725;SDS011;58304;53.104;6.022;2022-08-21T16:19:29;5.72;;;1.40;;
70725;SDS011;58304;53.104;6.022;2022-08-21T16:21:57;8.38;;;1.80;;
70725;SDS011;58304;53.104;6.022;2022-08-21T16:24:23;7.45;;;1.75;;
70725;SDS011;58304;53.104;6.022;2022-08-21T16:26:49;9.63;;;1.70;;
70725;SDS011;58304;53.104;6.022;2022-08-21T16:29:15;6.05;;;1.40;;
70725;SDS011;58304;53.104;6.022;2022-08-21T16:31:41;6.57;;;1.40;;
70725;SDS011;58304;53.104;6.022;2022-08-21T16:34:06;8.27;;;1.88;;
70725;SDS011;58304;53.104;6.022;2022-08-21T16:36:37;8.40;;;1.55;;
70725;SDS011;58304;53.104;6.022;2022-08-21T16:39:03;10.57;;;1.70;;
70725;SDS011;58304;53.104;6.022;2022-08-21T16:41:30;6.13;;;1.40;;